This is the latest recevied weather packets stored in our database for station/object CE4TQY-10. If no packets are shown the sender has not sent any weather packets the latest 10 day(s).
| Time | Temp. | Humidity | Pressure | Rain* | Wind** | Luminosity | Snow |
|---|---|---|---|---|---|---|---|
| 1777889979 | 14.44° C | 53% | 1018.7 hPa | - | - | - | - |
| 1777889078 | 14.44° C | 53% | 1018.7 hPa | - | - | - | - |
| 1777888176 | 15° C | 51% | 1018.8 hPa | - | - | - | - |
| 1777887276 | 15° C | 50% | 1018.8 hPa | - | - | - | - |
| 1777886375 | 15.56° C | 48% | 1018.9 hPa | - | - | - | - |
| 1777885474 | 15.56° C | 48% | 1018.9 hPa | - | - | - | - |
| 1777884573 | 15.56° C | 48% | 1018.9 hPa | - | - | - | - |
| 1777883672 | 15.56° C | 48% | 1018.6 hPa | - | - | - | - |
| 1777882771 | 15° C | 48% | 1018.5 hPa | - | - | - | - |
| 1777881870 | 15.56° C | 46% | 1018.5 hPa | - | - | - | - |
| 1777880969 | 15.56° C | 45% | 1018.7 hPa | - | - | - | - |
| 1777880067 | 15° C | 47% | 1018.8 hPa | - | - | - | - |
| 1777879167 | 15.56° C | 47% | 1018.9 hPa | - | - | - | - |
| 1777878266 | 15° C | 50% | 1019.2 hPa | - | - | - | - |
| 1777877365 | 15° C | 51% | 1019.3 hPa | - | - | - | - |
| 1777876464 | 15° C | 50% | 1019.3 hPa | - | - | - | - |
| 1777875563 | 15.56° C | 48% | 1019.5 hPa | - | - | - | - |
| 1777874662 | 15.56° C | 47% | 1019.5 hPa | - | - | - | - |
| 1777873762 | 15.56° C | 48% | 1019.7 hPa | - | - | - | - |
| 1777872860 | 15° C | 49% | 1019.9 hPa | - | - | - | - |
| 1777871959 | 15.56° C | 48% | 1020.2 hPa | - | - | - | - |
| 1777871058 | 16.11° C | 48% | 1020.4 hPa | - | - | - | - |
| 1777870158 | 16.11° C | 46% | 1020.7 hPa | - | - | - | - |
| 1777869257 | 16.67° C | 45% | 1020.8 hPa | - | - | - | - |
| 1777868356 | 16.11° C | 47% | 1020.9 hPa | - | - | - | - |
* Rain since midnight (hover to see other rain measurements)
** Current wind speed in m/s (hover to see current wind gust speed)